createdAt,value
2023-05-15T00:02:22.416Z,11.00
2023-05-15T00:04:50.550Z,10.90
2023-05-15T00:07:17.379Z,11.00
2023-05-15T00:09:44.083Z,11.00
2023-05-15T00:12:10.825Z,10.90
2023-05-15T00:14:37.457Z,10.90
2023-05-15T00:17:04.199Z,10.90
2023-05-15T00:19:30.879Z,10.80
2023-05-15T00:21:57.600Z,10.60
2023-05-15T00:24:24.339Z,10.40
2023-05-15T00:26:51.229Z,10.30
2023-05-15T00:29:17.922Z,10.20
2023-05-15T00:31:45.175Z,10.20
2023-05-15T00:34:11.948Z,10.10
2023-05-15T00:36:38.682Z,10.20
2023-05-15T00:39:05.347Z,10.30
2023-05-15T00:41:33.382Z,10.40
2023-05-15T00:44:02.154Z,10.40
2023-05-15T00:46:31.889Z,10.30
2023-05-15T00:48:59.460Z,10.30
2023-05-15T00:51:27.082Z,10.30
2023-05-15T00:53:54.839Z,10.20
2023-05-15T00:56:22.235Z,10.20
2023-05-15T00:58:50.066Z,10.20
2023-05-15T01:01:18.520Z,10.10
2023-05-15T01:03:46.274Z,10.10
2023-05-15T01:06:13.398Z,10.10
2023-05-15T01:08:46.111Z,10.00
2023-05-15T01:11:14.991Z,9.80
2023-05-15T01:13:41.859Z,9.80
2023-05-15T01:16:09.568Z,9.70
2023-05-15T01:18:37.805Z,9.70
2023-05-15T01:21:29.583Z,9.90
2023-05-15T01:24:25.464Z,9.80
2023-05-15T01:27:20.444Z,9.80
2023-05-15T01:30:08.328Z,9.80
2023-05-15T01:33:03.796Z,9.80
2023-05-15T01:35:43.981Z,9.80
2023-05-15T01:38:23.043Z,9.80
2023-05-15T01:41:02.122Z,9.60
2023-05-15T01:43:31.823Z,9.60
2023-05-15T01:45:59.201Z,9.60
2023-05-15T01:48:27.746Z,9.60
2023-05-15T01:51:03.354Z,9.70
2023-05-15T01:53:33.127Z,9.70
2023-05-15T01:56:00.207Z,9.60
2023-05-15T01:58:28.797Z,9.50
2023-05-15T02:00:56.388Z,9.40
2023-05-15T02:03:24.307Z,9.40
2023-05-15T02:05:53.241Z,9.50
2023-05-15T02:08:21.346Z,9.50
2023-05-15T02:10:49.581Z,9.30
2023-05-15T02:13:19.448Z,9.30
2023-05-15T02:15:46.488Z,9.30
2023-05-15T02:18:14.181Z,9.40
2023-05-15T02:20:41.002Z,9.30
2023-05-15T02:23:07.721Z,9.10
2023-05-15T02:25:44.597Z,9.20
2023-05-15T02:28:32.542Z,9.20
2023-05-15T02:31:05.628Z,9.10
2023-05-15T02:33:50.899Z,9.20
2023-05-15T02:36:27.680Z,9.20
2023-05-15T02:38:55.959Z,9.10
2023-05-15T02:41:23.664Z,9.10
2023-05-15T02:43:52.656Z,9.10
2023-05-15T02:46:21.273Z,9.20
2023-05-15T02:48:48.805Z,9.00
2023-05-15T02:51:15.718Z,9.00
2023-05-15T02:53:43.253Z,9.10
2023-05-15T02:56:10.314Z,9.10
2023-05-15T02:58:38.503Z,9.00
2023-05-15T03:01:05.691Z,9.00
2023-05-15T03:03:32.506Z,9.00
2023-05-15T03:06:00.943Z,8.90
2023-05-15T03:08:28.146Z,8.80
2023-05-15T03:10:54.905Z,8.70
2023-05-15T03:13:21.712Z,8.70
2023-05-15T03:15:48.400Z,8.70
2023-05-15T03:18:17.112Z,8.60
2023-05-15T03:20:45.625Z,8.60
2023-05-15T03:23:12.377Z,8.70
2023-05-15T03:25:39.093Z,8.70
2023-05-15T03:28:05.869Z,8.80
2023-05-15T03:30:32.599Z,8.80
2023-05-15T03:32:59.348Z,8.70
2023-05-15T03:35:27.086Z,8.70
2023-05-15T03:37:53.867Z,8.70
2023-05-15T03:40:20.577Z,8.60
2023-05-15T03:42:47.248Z,8.60
2023-05-15T03:45:14.000Z,8.50
2023-05-15T03:47:41.096Z,8.50
2023-05-15T03:50:08.021Z,8.60
2023-05-15T03:52:34.725Z,8.60
2023-05-15T03:55:02.189Z,8.60
2023-05-15T03:57:28.969Z,8.70
2023-05-15T03:59:55.669Z,8.70
2023-05-15T04:02:22.420Z,8.80
2023-05-15T04:04:49.608Z,8.60
2023-05-15T04:07:16.567Z,8.50
2023-05-15T04:09:43.275Z,8.60
2023-05-15T04:12:09.949Z,8.60
2023-05-15T04:14:36.777Z,8.70
2023-05-15T04:17:03.548Z,8.70
2023-05-15T04:19:30.303Z,8.80
2023-05-15T04:21:57.069Z,8.80
2023-05-15T04:24:23.732Z,8.80
2023-05-15T04:26:50.704Z,8.80
2023-05-15T04:29:19.837Z,8.80
2023-05-15T04:31:46.555Z,8.80
2023-05-15T04:34:13.331Z,8.90
2023-05-15T04:36:40.838Z,9.00
2023-05-15T04:41:59.870Z,9.20
2023-05-15T04:44:26.593Z,9.30
2023-05-15T04:46:53.327Z,9.40
2023-05-15T04:49:20.118Z,9.40
2023-05-15T04:51:46.893Z,9.50
2023-05-15T04:54:13.575Z,9.60
2023-05-15T04:56:40.284Z,9.60
2023-05-15T04:59:07.009Z,9.80
2023-05-15T05:01:33.714Z,10.00
2023-05-15T05:04:00.543Z,10.10
2023-05-15T05:06:29.230Z,10.30
2023-05-15T05:08:57.118Z,10.70
2023-05-15T05:11:23.847Z,10.80
2023-05-15T05:13:51.283Z,11.50
2023-05-15T05:16:18.075Z,12.00
2023-05-15T05:18:44.806Z,12.70
2023-05-15T05:21:11.640Z,12.60
2023-05-15T05:23:38.377Z,12.70
2023-05-15T05:26:06.186Z,13.00
2023-05-15T05:28:32.994Z,14.00
2023-05-15T05:30:59.920Z,14.70
2023-05-15T05:33:27.635Z,15.10
2023-05-15T05:35:55.649Z,15.60
2023-05-15T05:38:22.335Z,16.10
2023-05-15T05:40:49.003Z,16.60
2023-05-15T05:43:15.880Z,17.00
2023-05-15T05:45:42.617Z,17.40
2023-05-15T05:48:09.316Z,17.30
2023-05-15T05:50:36.798Z,17.30
2023-05-15T05:53:03.904Z,17.80
2023-05-15T05:55:30.714Z,18.10
2023-05-15T05:57:57.485Z,18.20
2023-05-15T06:00:24.999Z,18.20
2023-05-15T06:02:58.448Z,18.10
2023-05-15T06:05:26.527Z,18.30
2023-05-15T06:07:54.181Z,18.50
2023-05-15T06:10:21.957Z,18.50
2023-05-15T06:12:48.915Z,18.40
2023-05-15T06:15:16.648Z,18.60
2023-05-15T06:17:43.388Z,19.00
2023-05-15T06:20:10.399Z,19.30
2023-05-15T06:22:37.342Z,19.20
2023-05-15T06:25:07.828Z,18.80
2023-05-15T06:27:34.682Z,18.70
2023-05-15T06:30:01.380Z,18.90
2023-05-15T06:32:28.786Z,18.90
2023-05-15T06:34:55.458Z,18.90
2023-05-15T06:37:22.170Z,18.80
2023-05-15T06:39:48.908Z,18.70
2023-05-15T06:42:15.638Z,19.10
2023-05-15T06:44:42.320Z,19.50
2023-05-15T06:47:09.143Z,19.50
2023-05-15T06:49:35.901Z,19.70
2023-05-15T06:52:02.662Z,20.20
2023-05-15T06:54:29.347Z,20.20
2023-05-15T06:56:55.997Z,20.40
2023-05-15T06:59:22.724Z,21.10
2023-05-15T07:01:49.419Z,20.90
2023-05-15T07:04:16.454Z,20.20
2023-05-15T07:06:43.419Z,19.20
2023-05-15T07:09:10.139Z,20.00
2023-05-15T07:11:38.708Z,20.90
2023-05-15T07:14:06.581Z,21.10
2023-05-15T07:16:33.236Z,21.20
2023-05-15T07:19:00.973Z,21.40
2023-05-15T07:21:27.779Z,22.10
2023-05-15T07:23:54.382Z,22.20
2023-05-15T07:26:31.541Z,22.70
2023-05-15T07:28:59.465Z,22.50
2023-05-15T07:31:26.182Z,21.90
2023-05-15T07:33:52.864Z,22.00
2023-05-15T07:36:20.403Z,22.20
2023-05-15T07:38:47.361Z,22.30
2023-05-15T07:41:14.027Z,22.10
2023-05-15T07:43:40.766Z,22.40
2023-05-15T07:46:07.578Z,22.50
2023-05-15T07:48:34.304Z,22.60
2023-05-15T07:51:00.988Z,22.70
2023-05-15T07:53:27.831Z,23.20
2023-05-15T07:55:55.194Z,22.80
2023-05-15T07:58:23.205Z,22.40
2023-05-15T08:00:49.888Z,22.30
2023-05-15T08:03:17.077Z,22.70
2023-05-15T08:05:43.868Z,23.60
2023-05-15T08:08:10.544Z,23.50
2023-05-15T08:10:37.185Z,23.40
2023-05-15T08:13:03.827Z,23.80
2023-05-15T08:15:30.566Z,24.10
2023-05-15T08:17:57.792Z,23.70
2023-05-15T08:20:24.416Z,24.30
2023-05-15T08:22:51.240Z,24.90
2023-05-15T08:25:18.022Z,24.50
2023-05-15T08:27:44.731Z,24.50
2023-05-15T08:30:12.155Z,24.00
2023-05-15T08:32:38.844Z,23.60
2023-05-15T08:35:06.196Z,23.90
2023-05-15T08:37:33.659Z,24.60
2023-05-15T08:40:00.408Z,24.80
2023-05-15T08:42:44.186Z,25.20
2023-05-15T08:45:12.387Z,25.40
2023-05-15T08:47:40.851Z,24.80
2023-05-15T08:50:10.202Z,25.00
2023-05-15T08:52:41.600Z,25.50
2023-05-15T08:55:10.651Z,25.20
2023-05-15T08:57:38.429Z,24.90
2023-05-15T09:00:09.135Z,25.40
2023-05-15T09:02:39.574Z,24.80
2023-05-15T09:05:07.266Z,24.50
2023-05-15T09:07:34.525Z,25.50
2023-05-15T09:10:03.243Z,25.20
2023-05-15T09:12:36.397Z,25.30
2023-05-15T09:15:15.918Z,24.40
2023-05-15T09:17:43.221Z,24.40
2023-05-15T09:20:31.856Z,24.60
2023-05-15T09:23:00.430Z,25.20
2023-05-15T09:25:42.584Z,26.10
2023-05-15T09:28:11.136Z,25.60
2023-05-15T09:30:39.041Z,26.00
2023-05-15T09:33:06.058Z,25.90
2023-05-15T09:35:35.118Z,26.00
2023-05-15T09:38:07.607Z,25.60
2023-05-15T09:40:34.301Z,26.00
2023-05-15T09:43:01.078Z,25.50
2023-05-15T09:45:29.930Z,25.50
2023-05-15T09:47:59.915Z,25.00
2023-05-15T09:50:35.966Z,24.60
2023-05-15T09:53:04.493Z,24.10
2023-05-15T09:55:36.145Z,24.10
2023-05-15T09:58:09.872Z,24.50
2023-05-15T10:00:48.214Z,24.70
2023-05-15T10:03:19.031Z,24.90
2023-05-15T10:05:46.018Z,24.90
2023-05-15T10:08:16.115Z,25.40
2023-05-15T10:10:43.667Z,25.80
2023-05-15T10:13:11.521Z,26.00
2023-05-15T10:15:39.749Z,26.20
2023-05-15T10:18:14.665Z,26.10
2023-05-15T10:20:41.810Z,25.90
2023-05-15T10:23:12.223Z,25.80
2023-05-15T10:25:59.988Z,25.70
2023-05-15T10:28:28.394Z,26.00
2023-05-15T10:30:59.859Z,25.90
2023-05-15T10:33:27.795Z,26.40
2023-05-15T10:35:58.375Z,26.50
2023-05-15T10:38:26.158Z,26.50
2023-05-15T10:40:59.874Z,26.60
2023-05-15T10:43:30.627Z,26.40
2023-05-15T10:45:58.610Z,25.80
2023-05-15T10:48:26.092Z,25.80
2023-05-15T10:50:52.815Z,25.60
2023-05-15T10:53:20.250Z,25.70
2023-05-15T10:55:49.418Z,25.50
2023-05-15T10:58:16.223Z,25.80
2023-05-15T11:00:45.209Z,25.90
2023-05-15T11:03:16.180Z,25.80
2023-05-15T11:06:12.884Z,25.70
2023-05-15T11:08:41.561Z,26.40
2023-05-15T11:11:08.359Z,26.20
2023-05-15T11:14:07.833Z,25.70
2023-05-15T11:16:53.190Z,26.30
2023-05-15T11:19:29.104Z,26.50
2023-05-15T11:22:15.998Z,26.80
2023-05-15T11:24:49.758Z,26.60
2023-05-15T11:27:26.048Z,26.00
2023-05-15T11:30:09.500Z,26.40
2023-05-15T11:32:45.528Z,26.90
2023-05-15T11:35:13.185Z,25.90
2023-05-15T11:37:45.434Z,24.30
2023-05-15T11:40:46.709Z,23.80
2023-05-15T11:43:25.085Z,24.80
2023-05-15T11:45:55.968Z,25.20
2023-05-15T11:48:24.991Z,25.70
2023-05-15T11:50:54.818Z,26.10
2023-05-15T11:53:23.951Z,26.70
2023-05-15T11:55:54.107Z,26.50
2023-05-15T11:58:22.678Z,26.60
2023-05-15T12:00:51.432Z,26.50
2023-05-15T12:03:24.271Z,25.80
2023-05-15T12:05:59.429Z,24.90
2023-05-15T12:08:33.387Z,23.80
2023-05-15T12:11:01.117Z,22.90
2023-05-15T12:13:28.629Z,22.50
2023-05-15T12:15:56.934Z,22.30
2023-05-15T12:18:24.157Z,23.10
2023-05-15T12:20:54.871Z,24.30
2023-05-15T12:23:23.284Z,25.10
2023-05-15T12:25:55.056Z,24.80
2023-05-15T12:28:21.962Z,24.10
2023-05-15T12:30:49.242Z,23.20
2023-05-15T12:33:16.225Z,22.20
2023-05-15T12:35:49.762Z,21.60
2023-05-15T12:38:16.676Z,21.30
2023-05-15T12:40:45.253Z,21.10
2023-05-15T12:43:13.289Z,21.10
2023-05-15T12:45:40.710Z,21.60
2023-05-15T12:48:08.050Z,23.00
2023-05-15T12:50:35.864Z,23.60
2023-05-15T12:53:04.301Z,24.00
2023-05-15T12:55:36.036Z,24.00
2023-05-15T12:58:09.286Z,24.50
2023-05-15T13:00:38.636Z,24.30
2023-05-15T13:03:06.067Z,23.80
2023-05-15T13:05:34.183Z,23.20
2023-05-15T13:08:03.006Z,23.60
2023-05-15T13:10:33.190Z,23.80
2023-05-15T13:13:00.169Z,24.60
2023-05-15T13:15:43.022Z,25.00
2023-05-15T13:18:14.859Z,24.20
2023-05-15T13:20:47.012Z,24.80
2023-05-15T13:23:19.718Z,24.00
2023-05-15T13:25:46.707Z,23.20
2023-05-15T13:28:13.689Z,22.50
2023-05-15T13:30:44.337Z,22.20
2023-05-15T13:33:12.590Z,21.90
2023-05-15T13:35:41.175Z,22.30
2023-05-15T13:38:11.180Z,22.80
2023-05-15T13:40:38.716Z,23.50
2023-05-15T13:43:08.308Z,24.40
2023-05-15T13:45:37.281Z,25.20
2023-05-15T13:48:04.344Z,25.90
2023-05-15T13:50:31.090Z,25.70
2023-05-15T13:52:57.834Z,25.50
2023-05-15T13:55:26.038Z,25.20
2023-05-15T13:57:53.435Z,25.10
2023-05-15T14:00:20.797Z,25.40
2023-05-15T14:02:48.917Z,25.60
2023-05-15T14:05:16.849Z,26.00
2023-05-15T14:07:43.696Z,26.20
2023-05-15T14:10:13.877Z,26.20
2023-05-15T14:12:40.638Z,26.60
2023-05-15T14:15:07.859Z,26.80
2023-05-15T14:17:35.006Z,26.70
2023-05-15T14:20:02.187Z,26.40
2023-05-15T14:22:29.005Z,26.60
2023-05-15T14:24:55.687Z,26.60
2023-05-15T14:27:22.376Z,26.10
2023-05-15T14:29:49.447Z,25.70
2023-05-15T14:32:16.915Z,25.20
2023-05-15T14:34:44.260Z,25.00
2023-05-15T14:37:10.950Z,25.60
2023-05-15T14:39:37.705Z,26.20
2023-05-15T14:42:04.758Z,25.70
2023-05-15T14:44:31.580Z,25.30
2023-05-15T14:47:08.702Z,25.10
2023-05-15T14:49:36.756Z,24.60
2023-05-15T14:52:05.533Z,24.60
2023-05-15T14:54:33.096Z,24.60
2023-05-15T14:57:00.072Z,24.60
2023-05-15T14:59:28.352Z,24.90
2023-05-15T15:01:55.094Z,25.20
2023-05-15T15:04:22.033Z,25.30
2023-05-15T15:06:48.807Z,25.40
2023-05-15T15:09:15.589Z,24.80
2023-05-15T15:11:42.357Z,23.70
2023-05-15T15:14:09.051Z,22.80
2023-05-15T15:16:35.897Z,22.30
2023-05-15T15:19:02.758Z,22.00
2023-05-15T15:21:29.464Z,21.70
2023-05-15T15:23:57.194Z,21.60
2023-05-15T15:26:23.825Z,21.50
2023-05-15T15:28:50.577Z,21.60
2023-05-15T15:31:17.327Z,21.70
2023-05-15T15:33:45.168Z,21.70
2023-05-15T15:36:11.846Z,21.60
2023-05-15T15:38:41.639Z,21.70
2023-05-15T15:41:08.949Z,21.70
2023-05-15T15:43:35.628Z,22.20
2023-05-15T15:46:02.333Z,22.70
2023-05-15T15:48:29.328Z,22.90
2023-05-15T15:50:57.030Z,22.90
2023-05-15T15:53:23.808Z,22.40
2023-05-15T15:55:50.482Z,22.00
2023-05-15T15:58:19.649Z,21.40
2023-05-15T16:00:46.632Z,21.20
2023-05-15T16:03:13.382Z,21.00
2023-05-15T16:05:40.318Z,20.90
2023-05-15T16:08:07.035Z,20.70
2023-05-15T16:10:33.718Z,20.60
2023-05-15T16:13:00.477Z,20.60
2023-05-15T16:15:27.747Z,20.50
2023-05-15T16:17:55.210Z,20.40
2023-05-15T16:20:22.866Z,20.50
2023-05-15T16:22:50.055Z,20.40
2023-05-15T16:25:17.600Z,20.60
2023-05-15T16:27:44.628Z,20.50
2023-05-15T16:30:12.099Z,20.50
2023-05-15T16:32:39.734Z,20.50
2023-05-15T16:35:07.684Z,20.50
2023-05-15T16:37:34.419Z,20.50
2023-05-15T16:40:01.134Z,20.50
2023-05-15T16:42:28.394Z,21.00
2023-05-15T16:44:55.005Z,21.50
2023-05-15T16:47:21.723Z,21.70
2023-05-15T16:49:50.172Z,21.80
2023-05-15T16:52:17.322Z,22.00
2023-05-15T16:54:43.982Z,22.00
2023-05-15T16:57:10.690Z,22.20
2023-05-15T16:59:37.628Z,22.20
2023-05-15T17:02:04.631Z,22.30
2023-05-15T17:04:34.909Z,22.10
2023-05-15T17:07:02.172Z,21.70
2023-05-15T17:09:28.903Z,21.40
2023-05-15T17:11:55.638Z,21.40
2023-05-15T17:14:22.571Z,21.40
2023-05-15T17:16:49.270Z,21.10
2023-05-15T17:19:16.426Z,21.00
2023-05-15T17:21:44.567Z,20.60
2023-05-15T17:24:11.318Z,20.30
2023-05-15T17:26:37.973Z,20.10
2023-05-15T17:29:04.829Z,19.90
2023-05-15T17:31:33.320Z,19.70
2023-05-15T17:34:00.724Z,19.50
2023-05-15T17:36:27.651Z,19.30
2023-05-15T17:38:54.279Z,19.10
2023-05-15T17:41:22.001Z,18.90
2023-05-15T17:43:49.378Z,18.90
2023-05-15T17:46:16.194Z,18.80
2023-05-15T17:48:42.853Z,18.80
2023-05-15T17:51:09.528Z,18.80
2023-05-15T17:53:36.197Z,18.70
2023-05-15T17:56:03.712Z,18.60
2023-05-15T17:58:30.517Z,18.50
2023-05-15T18:00:57.214Z,18.60
2023-05-15T18:03:24.103Z,18.50
2023-05-15T18:05:51.928Z,18.40
2023-05-15T18:08:18.801Z,18.30
2023-05-15T18:10:46.025Z,18.20
2023-05-15T18:13:12.989Z,18.20
2023-05-15T18:15:40.838Z,18.10
2023-05-15T18:18:07.901Z,17.90
2023-05-15T18:20:34.699Z,17.90
2023-05-15T18:23:02.265Z,17.80
2023-05-15T18:25:29.044Z,17.70
2023-05-15T18:27:55.793Z,17.60
2023-05-15T18:30:22.466Z,17.50
2023-05-15T18:32:49.117Z,17.40
2023-05-15T18:35:15.832Z,17.30
2023-05-15T18:37:42.493Z,17.30
2023-05-15T18:40:09.941Z,17.20
2023-05-15T18:42:36.618Z,17.10
2023-05-15T18:45:03.437Z,17.00
2023-05-15T18:47:30.191Z,16.90
2023-05-15T18:49:57.085Z,16.80
2023-05-15T18:52:23.836Z,16.70
2023-05-15T18:54:52.169Z,16.60
2023-05-15T18:57:18.903Z,16.60
2023-05-15T18:59:45.705Z,16.40
2023-05-15T19:02:13.160Z,16.40
2023-05-15T19:04:40.018Z,16.30
2023-05-15T19:07:07.701Z,16.20
2023-05-15T19:09:35.339Z,16.10
2023-05-15T19:12:02.949Z,16.00
2023-05-15T19:14:29.646Z,15.90
2023-05-15T19:16:56.750Z,15.90
2023-05-15T19:19:23.774Z,15.70
2023-05-15T19:21:51.856Z,15.70
2023-05-15T19:24:18.931Z,15.60
2023-05-15T19:26:47.096Z,15.50
2023-05-15T19:29:13.922Z,15.40
2023-05-15T19:31:41.481Z,15.40
2023-05-15T19:34:08.222Z,15.30
2023-05-15T19:36:35.096Z,15.20
2023-05-15T19:39:02.246Z,15.10
2023-05-15T19:41:28.935Z,15.00
2023-05-15T19:43:55.805Z,14.90
2023-05-15T19:46:22.521Z,14.80
2023-05-15T19:48:49.223Z,14.70
2023-05-15T19:51:16.374Z,14.70
2023-05-15T19:53:43.687Z,14.60
2023-05-15T19:56:10.410Z,14.50
2023-05-15T19:58:37.310Z,14.40
2023-05-15T20:01:04.198Z,14.20
2023-05-15T20:03:33.918Z,14.00
2023-05-15T20:06:02.494Z,14.00
2023-05-15T20:08:29.505Z,13.80
2023-05-15T20:10:56.918Z,13.70
2023-05-15T20:13:23.872Z,13.60
2023-05-15T20:15:58.129Z,13.40
2023-05-15T20:18:26.384Z,13.40
2023-05-15T20:20:53.481Z,13.40
2023-05-15T20:23:20.848Z,13.30
2023-05-15T20:25:49.532Z,13.10
2023-05-15T20:28:17.597Z,13.10
2023-05-15T20:30:47.111Z,13.10
2023-05-15T20:33:14.035Z,12.90
2023-05-15T20:35:40.767Z,12.90
2023-05-15T20:38:07.464Z,12.80
2023-05-15T20:40:34.129Z,12.80
2023-05-15T20:43:01.425Z,12.70
2023-05-15T20:45:28.256Z,12.60
2023-05-15T20:47:55.142Z,12.60
2023-05-15T20:50:22.104Z,12.60
2023-05-15T20:52:49.757Z,12.60
2023-05-15T20:55:17.120Z,12.60
2023-05-15T20:57:44.767Z,12.50
2023-05-15T21:00:14.143Z,12.50
2023-05-15T21:02:41.046Z,12.50
2023-05-15T21:05:08.981Z,12.40
2023-05-15T21:07:36.148Z,12.50
2023-05-15T21:10:03.333Z,12.50
2023-05-15T21:12:32.169Z,12.50
2023-05-15T21:14:58.845Z,12.50
2023-05-15T21:17:25.599Z,12.40
2023-05-15T21:19:52.291Z,12.40
2023-05-15T21:22:18.975Z,12.40
2023-05-15T21:24:46.210Z,12.40
2023-05-15T21:27:12.884Z,12.30
2023-05-15T21:29:39.587Z,12.40
2023-05-15T21:32:06.783Z,12.40
2023-05-15T21:34:33.477Z,12.50
2023-05-15T21:37:00.174Z,12.50
2023-05-15T21:39:27.645Z,12.50
2023-05-15T21:41:54.326Z,12.40
2023-05-15T21:44:21.511Z,12.30
2023-05-15T21:46:48.183Z,12.30
2023-05-15T21:49:14.885Z,12.30
2023-05-15T21:51:41.662Z,12.30
2023-05-15T21:54:08.374Z,12.30
2023-05-15T21:56:35.981Z,12.30
2023-05-15T21:59:02.870Z,12.40
2023-05-15T22:01:29.783Z,12.40
2023-05-15T22:03:56.497Z,12.30
2023-05-15T22:06:23.344Z,12.30
2023-05-15T22:08:50.061Z,12.20
2023-05-15T22:11:17.159Z,12.30
2023-05-15T22:13:43.913Z,12.30
2023-05-15T22:16:10.763Z,12.30
2023-05-15T22:18:37.738Z,12.30
2023-05-15T22:21:04.593Z,12.30
2023-05-15T22:23:32.161Z,12.30
2023-05-15T22:25:58.868Z,12.20
2023-05-15T22:28:25.525Z,12.20
2023-05-15T22:30:52.228Z,12.10
2023-05-15T22:33:23.938Z,12.10
2023-05-15T22:35:53.951Z,12.10
2023-05-15T22:38:20.936Z,12.10
2023-05-15T22:40:51.984Z,12.10
2023-05-15T22:43:18.842Z,12.10
2023-05-15T22:45:45.630Z,12.10
2023-05-15T22:48:12.489Z,12.00
2023-05-15T22:50:39.219Z,12.00
2023-05-15T22:53:05.884Z,12.00
2023-05-15T22:55:32.603Z,11.90
2023-05-15T22:58:00.487Z,11.90
2023-05-15T23:00:27.930Z,11.90
2023-05-15T23:02:55.435Z,11.90
2023-05-15T23:05:23.498Z,11.90
2023-05-15T23:07:50.492Z,11.80
2023-05-15T23:10:17.254Z,11.70
2023-05-15T23:12:43.957Z,11.70
2023-05-15T23:15:10.970Z,11.60
2023-05-15T23:17:37.692Z,11.60
2023-05-15T23:20:06.791Z,11.60
2023-05-15T23:22:33.631Z,11.70
2023-05-15T23:25:00.750Z,11.70
2023-05-15T23:27:27.753Z,11.60
2023-05-15T23:29:54.544Z,11.60
2023-05-15T23:32:21.418Z,11.60
2023-05-15T23:34:48.086Z,11.60
2023-05-15T23:37:16.531Z,11.60
2023-05-15T23:39:43.155Z,11.60
2023-05-15T23:42:11.687Z,11.60
2023-05-15T23:44:38.472Z,11.60
2023-05-15T23:47:05.323Z,11.60
2023-05-15T23:49:33.407Z,11.60
2023-05-15T23:52:00.529Z,11.60
2023-05-15T23:54:27.942Z,11.60
2023-05-15T23:56:54.885Z,11.50
2023-05-15T23:59:21.728Z,11.50
